Aérodrome :
LOGIN :

S'inscrire | Disclaimer

   EN    FR    IT 

 










Légende :    VFR   VFR Marginal   IFR   IFR Intensif   IFR Très Intensif
Visi : 
Plafond : 
>= 8 km
>= 3000ft
5 à 8 km
1000 à 3000 ft
1500m à 5 km
500 à 1000 ft
800 à 1500m
200 à 500 ft
< 800m
< 200 ft
Symboles :   Orages  Brouillard  Fortes neiges  Fortes précipitations  Vent > 20 kt
SIGMETs :   Divers  Orages  Givrage  Turbulence  Onde Orograph.  Cendres Volcan.






- Altitude de l'aérodrome : 423 ft
- Code IATA : PIS


LFBI - Poitiers

DERNIER METAR :
  • 041600Z AUTO 23008KT 9999 FEW023/// SCT050/// BKN072/// ///TCU 23/17 Q1010 TEMPO 30010KT 3000 SHRA BKN013TCU

METARs EXPIRÉS :
  • 041530Z AUTO 24007KT 210V270 9999 FEW040/// SCT049/// BKN056/// ///TCU 21/17 Q1011 TEMPO 3000 SHRA BKN013TCU
  • 041500Z AUTO 22015KT 9999 BKN028 BKN039 BKN049 21/17 Q1010 TEMPO 30010KT 3000 SHRA BKN013TCU
  • 041430Z AUTO 22011KT 9999 BKN031 BKN038 OVC066 22/15 Q1010 TEMPO 30010KT 3000 SHRA BKN013TCU
  • 041400Z AUTO 23011KT 9999 FEW031 SCT054 BKN072 24/16 Q1010 TEMPO 30010KT 3000 SHRA BKN013TCU
  • 041330Z AUTO 24011KT 9999 FEW031 BKN056 23/16 Q1010 TEMPO 30010KT 3000 SHRA BKN013TCU

TAF TAF LFBI
Valide du 04 à 12h jusqu'au 05 à 12h UTC


041100Z 0412/0512 23010KT 9999 SCT015 BKN030
PROB40
TEMPO 0412/0418 30010KT 3000 SHRA BKN013TCU
TEMPO 0418/0424 BKN015
BECMG 0500/0502 OVC005
BECMG 0506/0508 SCT025
TEMPO 0509/0512 3000 SHRA BKN015TCU



MET'MAP, la Météo Aéronautique d'un coup d'oeil ! - Copyright ORBIFLY Décembre 2007 - Disclaimer

ORBIFLY MET'MAP TEAM :

Programmation & Développement : Alexandra Zaïnal
Sur une idée originale de : Baudouin d'Aumeries
Assistance à la programmation : Marc-Olivier Méhu
Soutien technique & logistique : Manuel Goepfert

Contact : metmap@orbifly.com




SOURCES & CREDITS :

   NOAA